Time;durP1;ratioP1;P1;durP2;ratioP2;P2;SDS_P1;SDS_P2;PMS_P1;PMS_P2;Temp;Humidity;BMP_temperature;BMP_pressure;BME280_temperature;BME280_humidity;BME280_pressure;Samples;Min_cycle;Max_cycle;Signal;HPM_P1;HPM_P2
2022/07/04 10:45:52;;;;;;;1.20;1.20;;;21.00;99.90;;;;;;5070795;28;20549;-79
2022/07/04 10:48:24;;;;;;;4.53;1.38;;;19.50;99.90;;;;;;5070551;28;20575;-77
2022/07/04 10:51:03;;;;;;;1.38;1.30;;;19.50;99.90;;;;;;5070724;28;20175;-79
2022/07/04 10:53:30;;;;;;;1.27;1.20;;;19.60;99.90;;;;;;5070683;28;20251;-79
2022/07/04 10:56:18;;;;;;;1.60;1.50;;;19.70;99.90;;;;;;5070510;28;20243;-79
2022/07/04 10:58:44;;;;;;;3.25;1.25;;;19.70;99.90;;;;;;5070443;28;20168;-79
2022/07/04 11:01:17;;;;;;;2.28;1.63;;;19.90;99.90;;;;;;5070423;28;20547;-79
2022/07/04 11:03:50;;;;;;;2.08;1.23;;;20.00;99.90;;;;;;5070349;28;20198;-79
2022/07/04 11:06:37;;;;;;;1.83;1.25;;;20.00;99.90;;;;;;5070335;28;20168;-77
2022/07/04 11:09:12;;;;;;;1.42;1.40;;;20.00;99.90;;;;;;5070373;28;20156;-77
2022/07/04 11:11:50;;;;;;;2.70;1.30;;;20.00;99.90;;;;;;5070244;28;20592;-79
2022/07/04 11:14:35;;;;;;;4.38;1.55;;;20.00;99.90;;;;;;5070187;28;20522;-79
2022/07/04 11:17:02;;;;;;;4.97;1.40;;;20.20;99.90;;;;;;5070136;28;20195;-79
2022/07/04 11:19:27;;;;;;;2.70;1.40;;;20.30;99.90;;;;;;5070095;28;20171;-79
2022/07/04 11:21:57;;;;;;;4.25;1.15;;;20.30;99.90;;;;;;5070035;28;20168;-79
2022/07/04 11:24:24;;;;;;;1.30;1.17;;;20.30;99.90;;;;;;5068682;28;20199;-79
2022/07/04 11:26:50;;;;;;;2.65;1.20;;;20.20;99.90;;;;;;5069942;28;20532;-79
2022/07/04 11:29:16;;;;;;;1.15;1.15;;;20.30;99.90;;;;;;5069834;28;20168;-79
2022/07/04 11:31:47;;;;;;;3.40;1.05;;;20.60;99.90;;;;;;5068551;28;20633;-79
2022/07/04 11:34:13;;;;;;;1.50;1.10;;;20.80;99.90;;;;;;5068574;28;20183;-79
2022/07/04 11:36:41;;;;;;;1.38;1.00;;;20.90;99.90;;;;;;5069785;28;20164;-80
2022/07/04 11:39:09;;;;;;;1.55;1.20;;;21.00;99.90;;;;;;5069596;28;20259;-79
2022/07/04 11:47:35;;;;;;;1.30;1.20;;;21.10;99.90;;;;;;5069794;28;20195;-80
2022/07/04 11:50:01;;;;;;;1.10;1.00;;;21.30;99.90;;;;;;5069375;28;20518;-79
2022/07/04 11:52:43;;;;;;;1.10;1.10;;;21.50;99.90;;;;;;5068098;28;20168;-79
2022/07/04 11:55:11;;;;;;;1.63;1.20;;;21.60;99.90;;;;;;5067854;28;20182;-80
2022/07/04 11:57:43;;;;;;;2.88;1.25;;;21.70;99.90;;;;;;5054615;28;20176;-80
2022/07/04 12:00:10;;;;;;;3.10;1.58;;;21.70;99.90;;;;;;5056002;28;20523;-80
2022/07/04 12:02:37;;;;;;;2.60;1.05;;;21.90;99.90;;;;;;5054611;28;20173;-79
2022/07/04 12:05:05;;;;;;;2.92;1.40;;;21.90;99.90;;;;;;5055879;28;20200;-80
2022/07/04 12:07:33;;;;;;;4.18;1.50;;;21.60;99.90;;;;;;5055875;28;20165;-80
2022/07/04 12:10:11;;;;;;;1.65;1.30;;;21.60;99.90;;;;;;5055805;28;20685;-80
2022/07/04 12:12:54;;;;;;;1.55;1.23;;;21.80;99.90;;;;;;5055786;28;20172;-80
2022/07/04 12:15:21;;;;;;;3.65;1.25;;;21.70;99.90;;;;;;5055707;28;20174;-80
2022/07/04 12:17:55;;;;;;;1.92;1.17;;;21.70;99.90;;;;;;5055756;28;20642;-79
2022/07/04 12:20:24;;;;;;;2.42;1.27;;;21.70;99.90;;;;;;5055714;28;20180;-80
2022/07/04 12:22:54;;;;;;;1.38;1.27;;;21.60;99.90;;;;;;5055697;28;20172;-80
2022/07/04 12:25:28;;;;;;;3.47;1.38;;;21.50;99.90;;;;;;5054253;28;20560;-80
2022/07/04 12:27:59;;;;;;;3.65;1.40;;;21.60;99.90;;;;;;5055562;28;20621;-80
2022/07/04 12:30:27;;;;;;;2.67;1.20;;;21.80;99.90;;;;;;5055426;28;20200;-80
2022/07/04 12:32:58;;;;;;;1.40;1.30;;;22.20;99.90;;;;;;5055313;28;20233;-80
2022/07/04 12:35:38;;;;;;;2.45;1.27;;;22.60;99.90;;;;;;5055454;28;20172;-80
2022/07/04 12:38:11;;;;;;;3.83;1.00;;;23.10;99.90;;;;;;5055255;28;20241;-80
2022/07/04 12:40:49;;;;;;;1.92;1.10;;;23.10;99.90;;;;;;5055317;28;20522;-81
2022/07/04 12:43:15;;;;;;;1.00;1.00;;;22.90;99.90;;;;;;5055294;28;20661;-81
2022/07/04 12:45:43;;;;;;;2.10;2.00;;;22.70;99.90;;;;;;5055040;28;20227;-81
2022/07/04 12:48:21;;;;;;;1.00;1.00;;;22.50;99.90;;;;;;5053916;28;20230;-80
2022/07/04 12:50:47;;;;;;;1.20;0.90;;;22.50;99.90;;;;;;5055131;28;20495;-79
2022/07/04 12:53:12;;;;;;;1.70;1.20;;;22.70;99.90;;;;;;5055020;28;20176;-78
2022/07/04 12:55:40;;;;;;;3.80;1.15;;;22.80;99.90;;;;;;5055032;28;20175;-79
2022/07/04 12:58:06;;;;;;;1.58;1.30;;;22.40;99.90;;;;;;5054965;28;20522;-78
2022/07/04 13:00:31;;;;;;;2.00;1.33;;;22.10;99.90;;;;;;5055231;28;20193;-80
2022/07/04 13:02:57;;;;;;;3.70;1.50;;;22.30;99.90;;;;;;5054813;28;20176;-80
2022/07/04 13:05:23;;;;;;;2.28;1.08;;;22.60;99.90;;;;;;5053442;28;20281;-79
2022/07/04 13:07:48;;;;;;;4.93;1.00;;;23.00;99.90;;;;;;5053729;28;20626;-78
2022/07/04 13:10:14;;;;;;;1.60;0.98;;;23.30;99.90;;;;;;5053458;28;20660;-80
2022/07/04 13:12:39;;;;;;;3.85;1.13;;;23.50;99.90;;;;;;5053374;28;20531;-82
2022/07/04 13:15:06;;;;;;;1.67;1.30;;;23.60;99.90;;;;;;5054478;28;20164;-81
2022/07/04 13:17:32;;;;;;;2.58;1.30;;;23.40;99.90;;;;;;5054313;28;20171;-79
2022/07/04 13:19:58;;;;;;;2.55;0.98;;;23.20;99.90;;;;;;5054476;28;20259;-78
2022/07/04 13:22:24;;;;;;;1.13;1.10;;;23.00;99.90;;;;;;5054558;28;20164;-78
2022/07/04 13:24:50;;;;;;;2.17;1.38;;;22.70;99.90;;;;;;5054500;28;20299;-77
2022/07/04 13:27:17;;;;;;;1.52;1.20;;;22.80;99.90;;;;;;5053464;28;20168;-78
2022/07/04 13:29:44;;;;;;;1.10;1.10;;;22.70;99.90;;;;;;5053235;28;20172;-80
2022/07/04 13:32:09;;;;;;;1.23;1.00;;;22.60;99.90;;;;;;5054310;28;20165;-79
2022/07/04 13:34:36;;;;;;;3.97;1.98;;;22.60;99.90;;;;;;5054282;28;20175;-80
2022/07/04 13:37:02;;;;;;;3.47;1.20;;;22.40;99.90;;;;;;5054277;28;20217;-81
2022/07/04 13:39:28;;;;;;;4.10;1.23;;;22.30;99.90;;;;;;5051999;28;20172;-83
2022/07/04 13:41:54;;;;;;;2.53;1.13;;;22.30;99.90;;;;;;5053702;28;20664;-83
2022/07/04 13:44:20;;;;;;;1.58;1.17;;;22.50;99.90;;;;;;5052100;28;20219;-81
2022/07/04 13:46:46;;;;;;;5.68;1.33;;;22.50;99.90;;;;;;5053829;28;20184;-82
2022/07/04 13:49:12;;;;;;;3.55;1.45;;;22.70;99.90;;;;;;5052566;28;20192;-81
2022/07/04 13:51:40;;;;;;;1.33;0.90;;;23.10;99.90;;;;;;5052436;28;20180;-81
2022/07/04 13:54:06;;;;;;;0.90;0.90;;;23.80;99.90;;;;;;5052516;28;20175;-79
2022/07/04 13:56:33;;;;;;;1.75;1.17;;;24.30;99.90;;;;;;5053041;28;20169;-81
2022/07/04 13:59:00;;;;;;;1.13;1.02;;;24.20;99.90;;;;;;5052181;28;20195;-80
2022/07/04 14:01:26;;;;;;;1.77;1.10;;;24.10;99.90;;;;;;5052222;28;20172;-80
2022/07/04 14:03:52;;;;;;;2.53;1.10;;;24.20;99.90;;;;;;5053524;28;20203;-79
2022/07/04 14:06:18;;;;;;;2.72;1.15;;;24.00;99.90;;;;;;5053632;28;20527;-80
2022/07/04 14:08:45;;;;;;;5.72;1.20;;;23.90;99.90;;;;;;5053722;28;20160;-80
2022/07/04 14:11:11;;;;;;;2.80;1.08;;;23.90;99.90;;;;;;5053604;28;20161;-81
2022/07/04 14:13:37;;;;;;;3.97;1.10;;;24.20;99.90;;;;;;5053600;28;20256;-80
2022/07/04 14:16:05;;;;;;;3.45;1.15;;;24.40;99.90;;;;;;5053406;28;20161;-80
2022/07/04 14:18:32;;;;;;;1.02;1.02;;;24.60;99.90;;;;;;5053253;28;20218;-79
2022/07/04 14:20:57;;;;;;;1.13;1.02;;;25.00;99.90;;;;;;5051946;28;20581;-80
2022/07/04 14:23:41;;;;;;;1.23;1.10;;;25.20;99.90;;;;;;5053466;28;20195;-80
2022/07/04 14:26:08;;;;;;;1.85;1.10;;;24.70;99.90;;;;;;5053394;28;20172;-80
2022/07/04 14:28:34;;;;;;;2.13;1.23;;;24.60;99.90;;;;;;5053287;28;20176;-80
2022/07/04 14:31:00;;;;;;;1.20;1.10;;;24.90;99.90;;;;;;5053302;28;20168;-80
2022/07/04 14:33:29;;;;;;;0.90;0.90;;;25.40;99.90;;;;;;5053286;28;20168;-80
2022/07/04 14:35:55;;;;;;;3.42;1.08;;;25.60;99.90;;;;;;5053292;28;20164;-80
2022/07/04 14:38:21;;;;;;;2.33;1.20;;;25.50;99.90;;;;;;5053229;28;20191;-80
2022/07/04 14:40:49;;;;;;;0.95;0.95;;;25.20;99.90;;;;;;5053180;28;20247;-80
2022/07/04 14:43:17;;;;;;;1.80;1.70;;;25.00;99.90;;;;;;5052936;28;20187;-82
2022/07/04 14:45:44;;;;;;;3.13;1.30;;;24.90;99.90;;;;;;5052988;28;20299;-83
2022/07/04 14:48:10;;;;;;;1.45;1.33;;;24.60;99.90;;;;;;5051578;28;20759;-78
2022/07/04 14:50:35;;;;;;;1.52;1.20;;;24.20;99.90;;;;;;5053008;28;20267;-78
2022/07/04 14:53:01;;;;;;;1.08;0.80;;;23.70;99.90;;;;;;5053044;28;20199;-78
2022/07/04 14:55:26;;;;;;;1.40;1.30;;;23.50;99.90;;;;;;5053038;28;20184;-78
2022/07/04 14:57:52;;;;;;;2.25;1.00;;;23.60;99.90;;;;;;5052973;28;20187;-80
2022/07/04 15:00:18;;;;;;;1.48;1.38;;;23.60;99.90;;;;;;5051812;28;20173;-81
2022/07/04 15:02:46;;;;;;;2.15;1.35;;;23.80;99.90;;;;;;5053032;28;20259;-82
2022/07/04 15:05:12;;;;;;;2.00;0.90;;;24.20;99.90;;;;;;5052969;28;20192;-81
2022/07/04 15:07:38;;;;;;;2.78;1.45;;;24.60;99.90;;;;;;5052897;28;20175;-81
2022/07/04 15:10:07;;;;;;;2.15;1.40;;;24.70;99.90;;;;;;5052952;28;20169;-80
2022/07/04 15:12:33;;;;;;;2.28;1.23;;;24.60;99.90;;;;;;5052912;28;20183;-78
2022/07/04 15:14:59;;;;;;;1.80;1.17;;;25.10;99.90;;;;;;5053089;28;20630;-83
2022/07/04 15:17:24;;;;;;;1.40;1.30;;;25.80;99.90;;;;;;5052914;28;20264;-85
2022/07/04 15:25:18;;;;;;;1.38;1.15;;;26.00;99.90;;;;;;5052960;28;20270;-87
2022/07/04 15:27:44;;;;;;;2.35;1.35;;;25.70;99.90;;;;;;5053155;28;20831;-81
2022/07/04 15:30:10;;;;;;;2.28;1.05;;;26.00;99.90;;;;;;5052901;28;20176;-83
2022/07/04 15:32:35;;;;;;;1.20;1.00;;;26.50;99.90;;;;;;5055100;28;20594;-86
2022/07/04 15:35:01;;;;;;;2.20;1.85;;;27.00;99.90;;;;;;5056882;28;20196;-88
2022/07/04 15:37:26;;;;;;;1.20;1.00;;;27.20;99.90;;;;;;5056739;28;20520;-88
2022/07/04 15:39:52;;;;;;;1.02;0.98;;;27.00;99.90;;;;;;5056745;28;20203;-86
2022/07/04 15:42:17;;;;;;;1.95;1.23;;;26.70;99.90;;;;;;5057000;28;20173;-88
2022/07/04 15:44:43;;;;;;;2.40;1.58;;;26.20;99.90;;;;;;5056457;28;20220;-87
2022/07/04 15:47:09;;;;;;;1.27;1.10;;;25.90;99.90;;;;;;5056743;28;20171;-86
2022/07/04 15:49:36;;;;;;;1.33;1.00;;;26.10;99.90;;;;;;5056764;28;20172;-84
2022/07/04 15:52:04;;;;;;;3.28;1.75;;;26.00;99.90;;;;;;5057716;28;20646;-88
2022/07/04 15:54:30;;;;;;;2.80;1.38;;;25.80;99.90;;;;;;5056753;28;20255;-86
2022/07/04 15:56:56;;;;;;;3.17;1.40;;;25.60;99.90;;;;;;5056244;28;20587;-87
2022/07/04 15:59:22;;;;;;;3.35;1.60;;;25.00;99.90;;;;;;5056022;28;20177;-88
2022/07/04 16:01:47;;;;;;;5.47;1.63;;;24.50;99.90;;;;;;5056312;28;20172;-87
2022/07/04 16:04:13;;;;;;;8.48;7.88;;;24.30;99.90;;;;;;5056046;28;20188;-86
2022/07/04 16:06:40;;;;;;;5.72;2.13;;;24.10;99.90;;;;;;5056087;28;20251;-85
2022/07/04 16:09:06;;;;;;;1.60;0.90;;;24.10;99.90;;;;;;5054818;28;20522;-87
2022/07/04 16:11:32;;;;;;;1.40;1.08;;;24.40;99.90;;;;;;5055976;28;20168;-85
2022/07/04 16:13:58;;;;;;;1.02;1.00;;;25.10;99.90;;;;;;5055867;28;20175;-84
2022/07/04 16:16:24;;;;;;;1.33;1.20;;;25.90;99.90;;;;;;5054519;28;20176;-82
2022/07/04 16:18:50;;;;;;;1.38;1.23;;;26.40;99.90;;;;;;5055658;28;20179;-85
2022/07/04 16:21:16;;;;;;;1.13;0.90;;;26.90;99.90;;;;;;5054482;28;20267;-82
2022/07/04 16:23:41;;;;;;;1.80;1.02;;;27.20;99.90;;;;;;5055583;28;20204;-86
2022/07/04 16:26:07;;;;;;;2.63;1.27;;;27.50;99.90;;;;;;5054414;28;20203;-85
2022/07/04 16:28:33;;;;;;;1.83;0.90;;;27.60;99.90;;;;;;5055635;28;20176;-86
2022/07/04 16:30:59;;;;;;;1.20;1.10;;;27.70;99.90;;;;;;5055687;28;20173;-86
2022/07/04 16:33:25;;;;;;;4.00;2.80;;;28.00;97.70;;;;;;5055462;28;20173;-83
2022/07/04 16:35:50;;;;;;;2.15;1.30;;;27.90;97.90;;;;;;5055121;28;20662;-84
2022/07/04 16:38:16;;;;;;;4.47;1.17;;;28.20;99.70;;;;;;5055640;28;20509;-77
2022/07/04 16:40:43;;;;;;;3.72;1.10;;;28.10;95.00;;;;;;5054261;28;20168;-78
2022/07/04 16:43:09;;;;;;;1.27;0.80;;;27.90;95.10;;;;;;5055581;28;20665;-76
2022/07/04 16:45:35;;;;;;;1.63;1.05;;;27.90;96.60;;;;;;5055339;28;20223;-75
2022/07/04 16:48:04;;;;;;;2.55;1.42;;;27.70;94.90;;;;;;5055341;28;20184;-75
2022/07/04 16:50:30;;;;;;;2.47;1.00;;;27.70;95.50;;;;;;5055332;28;20164;-75
2022/07/04 16:52:55;;;;;;;1.80;1.25;;;27.90;95.30;;;;;;5055110;28;20214;-75
2022/07/04 16:55:21;;;;;;;1.52;1.40;;;28.10;95.40;;;;;;5053868;28;20537;-76
2022/07/04 16:57:46;;;;;;;1.40;1.30;;;28.40;94.40;;;;;;5055225;28;20170;-76
2022/07/04 17:00:12;;;;;;;1.10;1.00;;;28.80;93.80;;;;;;5055412;28;20599;-75
2022/07/04 17:02:38;;;;;;;1.67;1.00;;;28.90;92.80;;;;;;5055162;28;20172;-76
2022/07/04 17:05:04;;;;;;;1.38;1.02;;;28.80;92.10;;;;;;5055203;28;20200;-75
2022/07/04 17:07:30;;;;;;;4.32;1.10;;;28.90;92.50;;;;;;5053990;28;20164;-76
2022/07/04 17:09:55;;;;;;;1.40;1.00;;;28.80;93.30;;;;;;5054053;28;20176;-76
2022/07/04 17:12:21;;;;;;;1.65;0.98;;;28.80;91.30;;;;;;5055116;28;20169;-76
2022/07/04 17:14:47;;;;;;;0.95;0.80;;;28.60;90.60;;;;;;5055045;28;20179;-75
2022/07/04 17:17:17;;;;;;;3.17;1.02;;;28.40;90.40;;;;;;5055020;28;20177;-76
2022/07/04 17:19:43;;;;;;;1.23;0.80;;;28.00;90.50;;;;;;5054961;28;20226;-76
2022/07/04 17:22:08;;;;;;;2.15;1.17;;;28.00;90.90;;;;;;5054813;28;20176;-76
2022/07/04 17:24:34;;;;;;;0.98;0.88;;;28.00;90.40;;;;;;5054741;28;20196;-76
2022/07/04 17:26:59;;;;;;;2.60;0.77;;;28.30;90.20;;;;;;5054700;28;20168;-76
2022/07/04 17:29:25;;;;;;;1.90;0.90;;;28.40;88.80;;;;;;5054675;28;20167;-76
2022/07/04 17:31:51;;;;;;;5.75;1.45;;;28.20;86.80;;;;;;5054538;28;20164;-76
2022/07/04 17:34:16;;;;;;;3.70;0.77;;;27.70;88.90;;;;;;5053507;28;20172;-75
2022/07/04 17:36:42;;;;;;;4.13;1.17;;;27.70;89.80;;;;;;5054559;28;20642;-76
2022/07/04 17:39:07;;;;;;;1.45;0.90;;;27.70;90.00;;;;;;5053485;28;20661;-75
2022/07/04 17:41:46;;;;;;;2.92;1.10;;;28.00;89.80;;;;;;5054430;28;20200;-76
2022/07/04 17:44:17;;;;;;;1.08;0.88;;;28.00;88.30;;;;;;5054129;28;20220;-76
2022/07/04 17:46:44;;;;;;;1.35;1.25;;;27.80;88.70;;;;;;5053170;28;20199;-76
2022/07/04 17:49:10;;;;;;;2.03;1.00;;;27.80;90.20;;;;;;5053167;28;20299;-76
2022/07/04 17:51:36;;;;;;;3.13;1.40;;;27.90;89.60;;;;;;5054184;28;20188;-76
2022/07/04 17:54:03;;;;;;;1.25;0.95;;;27.80;91.60;;;;;;5053880;28;20172;-76
2022/07/04 17:56:29;;;;;;;4.13;0.90;;;27.80;91.30;;;;;;5054304;28;20172;-76
2022/07/04 17:58:55;;;;;;;2.15;1.17;;;27.90;90.40;;;;;;5054193;28;20176;-75
2022/07/04 18:01:20;;;;;;;0.68;0.68;;;27.50;90.30;;;;;;5054248;28;20168;-76
2022/07/04 18:03:46;;;;;;;1.48;0.80;;;27.50;91.20;;;;;;5053903;28;20173;-75
2022/07/04 18:06:12;;;;;;;1.52;0.85;;;27.50;90.40;;;;;;5052827;28;20164;-75
2022/07/04 18:08:38;;;;;;;1.05;0.93;;;27.60;89.90;;;;;;5053202;28;20172;-75
2022/07/04 18:11:06;;;;;;;0.70;0.70;;;27.40;90.40;;;;;;5053891;28;20223;-76
2022/07/04 18:13:32;;;;;;;0.95;0.95;;;26.90;91.00;;;;;;5052657;28;20168;-75
2022/07/04 18:15:57;;;;;;;1.52;1.15;;;26.80;91.60;;;;;;5052779;28;20168;-75
2022/07/04 18:18:23;;;;;;;3.45;0.93;;;26.90;92.40;;;;;;5054005;28;20172;-75
2022/07/04 18:20:49;;;;;;;1.15;1.05;;;27.00;92.40;;;;;;5053788;28;20230;-75
2022/07/04 18:23:14;;;;;;;1.38;1.20;;;27.00;91.80;;;;;;5053925;28;20175;-75
2022/07/04 18:25:40;;;;;;;2.30;1.40;;;26.80;91.90;;;;;;5052548;28;20295;-75
2022/07/04 18:28:06;;;;;;;0.93;0.93;;;26.50;92.40;;;;;;5053710;28;20168;-75
2022/07/04 18:30:31;;;;;;;2.83;1.05;;;26.40;92.70;;;;;;5053823;28;20642;-75
2022/07/04 18:32:57;;;;;;;2.25;0.95;;;26.30;93.30;;;;;;5053644;28;20169;-75
2022/07/04 18:35:23;;;;;;;3.72;1.08;;;26.10;93.50;;;;;;5053579;28;20172;-75
2022/07/04 18:37:48;;;;;;;1.20;1.10;;;26.10;93.70;;;;;;5053751;28;20172;-75
2022/07/04 18:45:42;;;;;;;3.50;1.00;;;26.40;94.00;;;;;;5053365;28;20350;-75
2022/07/04 18:48:08;;;;;;;1.50;1.08;;;26.50;94.20;;;;;;5053568;28;20195;-75
2022/07/04 18:50:34;;;;;;;2.45;1.08;;;26.40;93.50;;;;;;5053446;28;20499;-75
2022/07/04 18:53:00;;;;;;;2.42;1.10;;;26.20;94.60;;;;;;5053469;28;20170;-75
2022/07/04 18:55:26;;;;;;;1.10;1.08;;;26.30;94.90;;;;;;5053566;28;20251;-75
2022/07/04 18:57:52;;;;;;;4.00;1.20;;;26.40;95.30;;;;;;5052299;28;20173;-75
2022/07/04 19:00:18;;;;;;;1.05;0.93;;;26.30;94.80;;;;;;5053361;28;20177;-75
2022/07/04 19:02:43;;;;;;;1.75;1.10;;;26.20;94.90;;;;;;5053531;28;20164;-75
2022/07/04 19:05:09;;;;;;;1.45;1.15;;;26.00;95.10;;;;;;5053337;28;20188;-75
2022/07/04 19:07:35;;;;;;;2.28;1.20;;;25.60;96.40;;;;;;5056997;28;20502;-75
2022/07/04 19:10:00;;;;;;;1.38;1.20;;;25.40;96.90;;;;;;5056304;28;20169;-75
2022/07/04 19:12:28;;;;;;;3.13;1.20;;;25.20;97.90;;;;;;5056192;28;20259;-75
2022/07/04 19:14:54;;;;;;;3.80;1.27;;;24.80;98.70;;;;;;5057330;28;20172;-75
2022/07/04 19:17:20;;;;;;;1.10;1.00;;;24.30;99.90;;;;;;5056154;28;20184;-75
2022/07/04 19:19:45;;;;;;;1.80;1.30;;;23.90;99.90;;;;;;5057159;28;20626;-75
2022/07/04 19:22:11;;;;;;;2.58;1.13;;;23.50;99.90;;;;;;5057061;28;20171;-74
2022/07/04 19:24:37;;;;;;;3.47;1.52;;;23.10;99.90;;;;;;5057084;28;20212;-74
2022/07/04 19:27:03;;;;;;;2.83;1.40;;;22.80;99.90;;;;;;5057182;28;20167;-74
